sensor_id;sensor_type;location;lat;lon;timestamp;temperature;humidity
4081;DHT22;2055;50.074;8.436;2023-04-01T00:01:20;10.40;99.90
4081;DHT22;2055;50.074;8.436;2023-04-01T00:03:46;10.40;99.90
4081;DHT22;2055;50.074;8.436;2023-04-01T00:06:14;10.40;99.90
4081;DHT22;2055;50.074;8.436;2023-04-01T00:08:40;10.40;99.90
4081;DHT22;2055;50.074;8.436;2023-04-01T00:11:06;10.40;99.90
4081;DHT22;2055;50.074;8.436;2023-04-01T00:13:31;10.40;99.90
4081;DHT22;2055;50.074;8.436;2023-04-01T00:15:58;10.40;99.90
4081;DHT22;2055;50.074;8.436;2023-04-01T00:18:24;10.40;99.90
4081;DHT22;2055;50.074;8.436;2023-04-01T00:20:52;10.30;99.90
4081;DHT22;2055;50.074;8.436;2023-04-01T00:23:18;10.30;99.90
4081;DHT22;2055;50.074;8.436;2023-04-01T00:25:45;10.30;99.90
4081;DHT22;2055;50.074;8.436;2023-04-01T00:28:12;10.30;99.90
4081;DHT22;2055;50.074;8.436;2023-04-01T00:30:37;10.30;99.90
4081;DHT22;2055;50.074;8.436;2023-04-01T00:33:03;10.30;99.90
4081;DHT22;2055;50.074;8.436;2023-04-01T00:35:29;10.40;99.90
4081;DHT22;2055;50.074;8.436;2023-04-01T00:37:55;10.40;99.90
4081;DHT22;2055;50.074;8.436;2023-04-01T00:40:28;10.40;99.90
4081;DHT22;2055;50.074;8.436;2023-04-01T00:42:54;10.60;99.90
4081;DHT22;2055;50.074;8.436;2023-04-01T00:45:49;10.80;99.90
4081;DHT22;2055;50.074;8.436;2023-04-01T00:48:18;10.60;99.90
4081;DHT22;2055;50.074;8.436;2023-04-01T00:50:49;10.60;99.90
4081;DHT22;2055;50.074;8.436;2023-04-01T00:53:17;10.50;99.90
4081;DHT22;2055;50.074;8.436;2023-04-01T00:55:50;10.50;99.90
4081;DHT22;2055;50.074;8.436;2023-04-01T00:58:20;10.60;99.90
4081;DHT22;2055;50.074;8.436;2023-04-01T01:00:47;10.50;99.90
4081;DHT22;2055;50.074;8.436;2023-04-01T01:03:13;10.50;99.90
4081;DHT22;2055;50.074;8.436;2023-04-01T01:05:51;10.50;99.90
4081;DHT22;2055;50.074;8.436;2023-04-01T01:11:05;10.50;99.90
4081;DHT22;2055;50.074;8.436;2023-04-01T01:14:01;10.50;99.90
4081;DHT22;2055;50.074;8.436;2023-04-01T01:16:30;10.50;99.90
4081;DHT22;2055;50.074;8.436;2023-04-01T01:22:36;10.40;99.90
4081;DHT22;2055;50.074;8.436;2023-04-01T01:31:23;10.40;99.90
4081;DHT22;2055;50.074;8.436;2023-04-01T01:36:48;10.40;99.90
4081;DHT22;2055;50.074;8.436;2023-04-01T01:39:16;10.40;99.90
4081;DHT22;2055;50.074;8.436;2023-04-01T01:41:44;10.40;99.90
4081;DHT22;2055;50.074;8.436;2023-04-01T01:44:12;10.40;99.90
4081;DHT22;2055;50.074;8.436;2023-04-01T01:46:40;10.40;99.90
4081;DHT22;2055;50.074;8.436;2023-04-01T01:49:07;10.90;99.90
4081;DHT22;2055;50.074;8.436;2023-04-01T01:51:35;10.40;99.90
4081;DHT22;2055;50.074;8.436;2023-04-01T01:54:01;10.40;99.90
4081;DHT22;2055;50.074;8.436;2023-04-01T01:56:27;10.40;99.90
4081;DHT22;2055;50.074;8.436;2023-04-01T01:58:58;10.40;99.90
4081;DHT22;2055;50.074;8.436;2023-04-01T02:01:28;10.40;99.90
4081;DHT22;2055;50.074;8.436;2023-04-01T02:03:55;10.40;99.90
4081;DHT22;2055;50.074;8.436;2023-04-01T02:06:26;10.40;99.90
4081;DHT22;2055;50.074;8.436;2023-04-01T02:08:56;10.40;99.90
4081;DHT22;2055;50.074;8.436;2023-04-01T02:11:30;10.30;99.90
4081;DHT22;2055;50.074;8.436;2023-04-01T02:16:36;10.30;99.90
4081;DHT22;2055;50.074;8.436;2023-04-01T02:19:03;10.30;99.90
4081;DHT22;2055;50.074;8.436;2023-04-01T02:21:33;10.30;99.90
4081;DHT22;2055;50.074;8.436;2023-04-01T02:24:02;10.30;99.90
4081;DHT22;2055;50.074;8.436;2023-04-01T02:26:29;10.30;99.90
4081;DHT22;2055;50.074;8.436;2023-04-01T02:28:56;10.30;99.90
4081;DHT22;2055;50.074;8.436;2023-04-01T02:31:23;10.30;99.90
4081;DHT22;2055;50.074;8.436;2023-04-01T02:33:49;10.30;99.90
4081;DHT22;2055;50.074;8.436;2023-04-01T02:36:15;10.30;99.90
4081;DHT22;2055;50.074;8.436;2023-04-01T02:38:43;10.30;99.90
4081;DHT22;2055;50.074;8.436;2023-04-01T02:41:10;10.30;99.90
4081;DHT22;2055;50.074;8.436;2023-04-01T02:43:35;10.30;99.90
4081;DHT22;2055;50.074;8.436;2023-04-01T02:46:01;10.20;99.90
4081;DHT22;2055;50.074;8.436;2023-04-01T02:48:27;10.20;99.90
4081;DHT22;2055;50.074;8.436;2023-04-01T02:50:53;10.20;99.90
4081;DHT22;2055;50.074;8.436;2023-04-01T02:53:18;10.20;99.90
4081;DHT22;2055;50.074;8.436;2023-04-01T02:55:44;10.20;99.90
4081;DHT22;2055;50.074;8.436;2023-04-01T02:58:10;10.20;99.90
4081;DHT22;2055;50.074;8.436;2023-04-01T03:00:35;10.20;99.90
4081;DHT22;2055;50.074;8.436;2023-04-01T03:03:01;10.20;99.90
4081;DHT22;2055;50.074;8.436;2023-04-01T03:05:28;10.20;99.90
4081;DHT22;2055;50.074;8.436;2023-04-01T03:07:53;10.20;99.90
4081;DHT22;2055;50.074;8.436;2023-04-01T03:10:19;10.20;99.90
4081;DHT22;2055;50.074;8.436;2023-04-01T03:12:45;10.20;99.90
4081;DHT22;2055;50.074;8.436;2023-04-01T03:15:12;10.20;99.90
4081;DHT22;2055;50.074;8.436;2023-04-01T03:17:39;10.20;99.90
4081;DHT22;2055;50.074;8.436;2023-04-01T03:20:05;10.20;99.90
4081;DHT22;2055;50.074;8.436;2023-04-01T03:22:31;10.10;99.90
4081;DHT22;2055;50.074;8.436;2023-04-01T03:24:56;10.10;99.90
4081;DHT22;2055;50.074;8.436;2023-04-01T03:27:22;10.20;99.90
4081;DHT22;2055;50.074;8.436;2023-04-01T03:29:48;10.20;99.90
4081;DHT22;2055;50.074;8.436;2023-04-01T03:32:14;10.20;99.90
4081;DHT22;2055;50.074;8.436;2023-04-01T03:34:39;10.20;99.90
4081;DHT22;2055;50.074;8.436;2023-04-01T03:37:05;10.20;99.90
4081;DHT22;2055;50.074;8.436;2023-04-01T03:39:31;10.20;99.90
4081;DHT22;2055;50.074;8.436;2023-04-01T03:41:57;10.20;99.90
4081;DHT22;2055;50.074;8.436;2023-04-01T03:44:22;10.20;99.90
4081;DHT22;2055;50.074;8.436;2023-04-01T03:46:48;10.60;99.90
4081;DHT22;2055;50.074;8.436;2023-04-01T03:49:13;10.30;99.90
4081;DHT22;2055;50.074;8.436;2023-04-01T03:51:40;10.30;99.90
4081;DHT22;2055;50.074;8.436;2023-04-01T03:54:06;10.30;99.90
4081;DHT22;2055;50.074;8.436;2023-04-01T03:56:32;10.20;99.90
4081;DHT22;2055;50.074;8.436;2023-04-01T03:58:58;10.20;99.90
4081;DHT22;2055;50.074;8.436;2023-04-01T04:01:24;10.20;99.90
4081;DHT22;2055;50.074;8.436;2023-04-01T04:03:50;10.20;99.90
4081;DHT22;2055;50.074;8.436;2023-04-01T04:06:17;10.20;99.90
4081;DHT22;2055;50.074;8.436;2023-04-01T04:08:43;10.20;99.90
4081;DHT22;2055;50.074;8.436;2023-04-01T04:11:09;10.20;99.90
4081;DHT22;2055;50.074;8.436;2023-04-01T04:13:35;10.20;99.90
4081;DHT22;2055;50.074;8.436;2023-04-01T04:16:02;10.20;99.90
4081;DHT22;2055;50.074;8.436;2023-04-01T04:18:27;10.20;99.90
4081;DHT22;2055;50.074;8.436;2023-04-01T04:20:53;10.10;99.90
4081;DHT22;2055;50.074;8.436;2023-04-01T04:23:18;10.20;99.90
4081;DHT22;2055;50.074;8.436;2023-04-01T04:25:55;10.20;99.90
4081;DHT22;2055;50.074;8.436;2023-04-01T04:28:21;10.20;99.90
4081;DHT22;2055;50.074;8.436;2023-04-01T04:30:46;10.10;99.90
4081;DHT22;2055;50.074;8.436;2023-04-01T04:33:12;10.20;99.90
4081;DHT22;2055;50.074;8.436;2023-04-01T04:35:37;10.20;99.90
4081;DHT22;2055;50.074;8.436;2023-04-01T04:38:03;10.20;99.90
4081;DHT22;2055;50.074;8.436;2023-04-01T04:40:28;10.20;99.90
4081;DHT22;2055;50.074;8.436;2023-04-01T04:42:54;10.20;99.90
4081;DHT22;2055;50.074;8.436;2023-04-01T04:45:19;10.20;99.90
4081;DHT22;2055;50.074;8.436;2023-04-01T04:47:45;10.20;99.90
4081;DHT22;2055;50.074;8.436;2023-04-01T04:50:10;10.20;99.90
4081;DHT22;2055;50.074;8.436;2023-04-01T04:52:37;10.20;99.90
4081;DHT22;2055;50.074;8.436;2023-04-01T04:55:02;10.20;99.90
4081;DHT22;2055;50.074;8.436;2023-04-01T04:57:28;10.20;99.90
4081;DHT22;2055;50.074;8.436;2023-04-01T04:59:53;10.20;99.90
4081;DHT22;2055;50.074;8.436;2023-04-01T05:02:19;10.20;99.90
4081;DHT22;2055;50.074;8.436;2023-04-01T05:04:44;10.10;99.90
4081;DHT22;2055;50.074;8.436;2023-04-01T05:07:10;10.10;99.90
4081;DHT22;2055;50.074;8.436;2023-04-01T05:09:36;10.10;99.90
4081;DHT22;2055;50.074;8.436;2023-04-01T05:12:01;10.10;99.90
4081;DHT22;2055;50.074;8.436;2023-04-01T05:14:27;10.10;99.90
4081;DHT22;2055;50.074;8.436;2023-04-01T05:16:52;10.00;99.90
4081;DHT22;2055;50.074;8.436;2023-04-01T05:19:19;10.00;99.90
4081;DHT22;2055;50.074;8.436;2023-04-01T05:21:45;9.90;99.90
4081;DHT22;2055;50.074;8.436;2023-04-01T05:24:10;9.80;99.90
4081;DHT22;2055;50.074;8.436;2023-04-01T05:26:36;9.80;99.90
4081;DHT22;2055;50.074;8.436;2023-04-01T05:29:05;9.70;99.90
4081;DHT22;2055;50.074;8.436;2023-04-01T05:31:30;9.60;99.90
4081;DHT22;2055;50.074;8.436;2023-04-01T05:33:56;9.60;99.90
4081;DHT22;2055;50.074;8.436;2023-04-01T05:36:22;9.50;99.90
4081;DHT22;2055;50.074;8.436;2023-04-01T05:38:48;9.50;99.90
4081;DHT22;2055;50.074;8.436;2023-04-01T05:41:15;9.50;99.90
4081;DHT22;2055;50.074;8.436;2023-04-01T05:43:41;9.50;99.90
4081;DHT22;2055;50.074;8.436;2023-04-01T05:46:07;9.50;99.90
4081;DHT22;2055;50.074;8.436;2023-04-01T05:48:33;9.50;99.90
4081;DHT22;2055;50.074;8.436;2023-04-01T05:51:00;9.40;99.90
4081;DHT22;2055;50.074;8.436;2023-04-01T05:53:26;9.50;99.90
4081;DHT22;2055;50.074;8.436;2023-04-01T05:55:52;9.50;99.90
4081;DHT22;2055;50.074;8.436;2023-04-01T05:58:17;11.30;99.90
4081;DHT22;2055;50.074;8.436;2023-04-01T06:00:43;9.50;99.90
4081;DHT22;2055;50.074;8.436;2023-04-01T06:03:09;9.50;99.90
4081;DHT22;2055;50.074;8.436;2023-04-01T06:05:42;9.40;99.90
4081;DHT22;2055;50.074;8.436;2023-04-01T06:08:18;9.50;99.90
4081;DHT22;2055;50.074;8.436;2023-04-01T06:11:03;9.40;99.90
4081;DHT22;2055;50.074;8.436;2023-04-01T06:25:47;9.40;99.90
4081;DHT22;2055;50.074;8.436;2023-04-01T06:30:42;9.40;99.90
4081;DHT22;2055;50.074;8.436;2023-04-01T06:33:50;9.40;99.90
4081;DHT22;2055;50.074;8.436;2023-04-01T06:42:16;9.40;99.90
4081;DHT22;2055;50.074;8.436;2023-04-01T06:53:06;9.40;99.90
4081;DHT22;2055;50.074;8.436;2023-04-01T06:55:47;9.30;99.90
4081;DHT22;2055;50.074;8.436;2023-04-01T06:58:27;9.30;99.90
4081;DHT22;2055;50.074;8.436;2023-04-01T07:00:57;9.30;99.90
4081;DHT22;2055;50.074;8.436;2023-04-01T07:03:33;9.30;99.90
4081;DHT22;2055;50.074;8.436;2023-04-01T07:06:14;9.30;99.90
4081;DHT22;2055;50.074;8.436;2023-04-01T07:08:43;9.20;99.90
4081;DHT22;2055;50.074;8.436;2023-04-01T07:11:16;9.30;99.90
4081;DHT22;2055;50.074;8.436;2023-04-01T07:13:48;9.30;99.90
4081;DHT22;2055;50.074;8.436;2023-04-01T07:18:56;9.40;99.90
4081;DHT22;2055;50.074;8.436;2023-04-01T07:21:34;9.50;99.90
4081;DHT22;2055;50.074;8.436;2023-04-01T07:24:11;9.50;99.90
4081;DHT22;2055;50.074;8.436;2023-04-01T07:26:41;9.50;99.90
4081;DHT22;2055;50.074;8.436;2023-04-01T07:29:11;9.50;99.90
4081;DHT22;2055;50.074;8.436;2023-04-01T07:32:16;9.50;99.90
4081;DHT22;2055;50.074;8.436;2023-04-01T07:34:55;9.50;99.90
4081;DHT22;2055;50.074;8.436;2023-04-01T07:43:22;9.60;99.90
4081;DHT22;2055;50.074;8.436;2023-04-01T07:46:10;9.60;99.90
4081;DHT22;2055;50.074;8.436;2023-04-01T07:48:51;9.60;99.90
4081;DHT22;2055;50.074;8.436;2023-04-01T07:51:35;9.70;99.90
4081;DHT22;2055;50.074;8.436;2023-04-01T07:54:14;9.80;99.90
4081;DHT22;2055;50.074;8.436;2023-04-01T07:56:55;9.80;99.90
4081;DHT22;2055;50.074;8.436;2023-04-01T07:59:48;9.80;99.90
4081;DHT22;2055;50.074;8.436;2023-04-01T08:20:45;10.00;99.90
4081;DHT22;2055;50.074;8.436;2023-04-01T08:23:28;10.10;99.90
4081;DHT22;2055;50.074;8.436;2023-04-01T08:28:58;7.40;99.90
4081;DHT22;2055;50.074;8.436;2023-04-01T08:34:18;10.10;99.90
4081;DHT22;2055;50.074;8.436;2023-04-01T08:36:52;10.10;99.90
4081;DHT22;2055;50.074;8.436;2023-04-01T08:39:47;10.10;99.90
4081;DHT22;2055;50.074;8.436;2023-04-01T08:45:53;10.30;99.90
4081;DHT22;2055;50.074;8.436;2023-04-01T08:48:28;10.30;99.90
4081;DHT22;2055;50.074;8.436;2023-04-01T08:51:04;10.20;99.90
4081;DHT22;2055;50.074;8.436;2023-04-01T08:56:56;10.20;99.90
4081;DHT22;2055;50.074;8.436;2023-04-01T09:03:12;10.20;99.90
4081;DHT22;2055;50.074;8.436;2023-04-01T09:06:26;10.30;99.90
4081;DHT22;2055;50.074;8.436;2023-04-01T09:28:28;10.50;99.90
4081;DHT22;2055;50.074;8.436;2023-04-01T09:34:20;10.60;99.90
4081;DHT22;2055;50.074;8.436;2023-04-01T09:37:21;10.60;99.90
4081;DHT22;2055;50.074;8.436;2023-04-01T09:43:16;10.70;99.90
4081;DHT22;2055;50.074;8.436;2023-04-01T10:00:06;10.80;99.90
4081;DHT22;2055;50.074;8.436;2023-04-01T10:03:10;11.00;99.90
4081;DHT22;2055;50.074;8.436;2023-04-01T10:14:03;11.40;99.90
4081;DHT22;2055;50.074;8.436;2023-04-01T10:47:05;11.40;99.90
4081;DHT22;2055;50.074;8.436;2023-04-01T10:49:46;11.50;99.90
4081;DHT22;2055;50.074;8.436;2023-04-01T10:58:15;11.60;99.90
4081;DHT22;2055;50.074;8.436;2023-04-01T11:09:56;11.60;99.90
4081;DHT22;2055;50.074;8.436;2023-04-01T11:15:29;11.80;99.90
4081;DHT22;2055;50.074;8.436;2023-04-01T11:26:39;12.10;99.90
4081;DHT22;2055;50.074;8.436;2023-04-01T11:32:45;11.80;99.90
4081;DHT22;2055;50.074;8.436;2023-04-01T11:38:45;11.70;99.90
4081;DHT22;2055;50.074;8.436;2023-04-01T11:41:28;11.70;99.90
4081;DHT22;2055;50.074;8.436;2023-04-01T11:44:17;11.80;99.90
4081;DHT22;2055;50.074;8.436;2023-04-01T11:55:41;11.60;99.90
4081;DHT22;2055;50.074;8.436;2023-04-01T12:06:58;11.70;99.90
4081;DHT22;2055;50.074;8.436;2023-04-01T12:12:22;11.70;99.90
4081;DHT22;2055;50.074;8.436;2023-04-01T12:15:42;11.60;99.90
4081;DHT22;2055;50.074;8.436;2023-04-01T12:18:15;11.50;99.90
4081;DHT22;2055;50.074;8.436;2023-04-01T12:20:50;11.40;99.90
4081;DHT22;2055;50.074;8.436;2023-04-01T12:32:03;11.40;99.90
4081;DHT22;2055;50.074;8.436;2023-04-01T12:38:25;11.30;99.90
4081;DHT22;2055;50.074;8.436;2023-04-01T12:41:09;11.30;99.90
4081;DHT22;2055;50.074;8.436;2023-04-01T12:44:11;11.40;99.90
4081;DHT22;2055;50.074;8.436;2023-04-01T12:47:19;11.50;99.90
4081;DHT22;2055;50.074;8.436;2023-04-01T12:55:29;11.60;99.90
4081;DHT22;2055;50.074;8.436;2023-04-01T13:03:57;11.80;99.90
4081;DHT22;2055;50.074;8.436;2023-04-01T13:09:40;12.00;99.90
4081;DHT22;2055;50.074;8.436;2023-04-01T13:17:26;12.00;99.90
4081;DHT22;2055;50.074;8.436;2023-04-01T13:22:51;12.20;99.90
4081;DHT22;2055;50.074;8.436;2023-04-01T13:25:43;12.40;99.90
4081;DHT22;2055;50.074;8.436;2023-04-01T13:28:24;12.60;99.90
4081;DHT22;2055;50.074;8.436;2023-04-01T13:31:04;12.60;99.90
4081;DHT22;2055;50.074;8.436;2023-04-01T13:34:06;12.40;99.90
4081;DHT22;2055;50.074;8.436;2023-04-01T13:36:56;12.30;99.90
4081;DHT22;2055;50.074;8.436;2023-04-01T13:44:49;11.80;99.90
4081;DHT22;2055;50.074;8.436;2023-04-01T13:50:37;11.60;99.90
4081;DHT22;2055;50.074;8.436;2023-04-01T13:53:22;11.40;99.90
4081;DHT22;2055;50.074;8.436;2023-04-01T13:56:24;11.30;99.90
4081;DHT22;2055;50.074;8.436;2023-04-01T14:04:41;11.10;99.90
4081;DHT22;2055;50.074;8.436;2023-04-01T14:13:23;10.90;99.90
4081;DHT22;2055;50.074;8.436;2023-04-01T14:19:21;10.90;99.90
4081;DHT22;2055;50.074;8.436;2023-04-01T14:27:55;11.00;99.90
4081;DHT22;2055;50.074;8.436;2023-04-01T14:30:27;11.00;99.90
4081;DHT22;2055;50.074;8.436;2023-04-01T14:35:50;11.00;99.90
4081;DHT22;2055;50.074;8.436;2023-04-01T14:38:42;11.00;99.90
4081;DHT22;2055;50.074;8.436;2023-04-01T14:41:37;11.20;99.90
4081;DHT22;2055;50.074;8.436;2023-04-01T14:44:31;11.30;99.90
4081;DHT22;2055;50.074;8.436;2023-04-01T14:49:40;11.30;99.90
4081;DHT22;2055;50.074;8.436;2023-04-01T14:52:14;11.30;99.90
4081;DHT22;2055;50.074;8.436;2023-04-01T14:54:44;11.30;99.90
4081;DHT22;2055;50.074;8.436;2023-04-01T14:57:26;11.20;99.90
4081;DHT22;2055;50.074;8.436;2023-04-01T15:00:00;11.30;99.90
4081;DHT22;2055;50.074;8.436;2023-04-01T15:02:54;11.20;99.90
4081;DHT22;2055;50.074;8.436;2023-04-01T15:08:32;11.50;99.90
4081;DHT22;2055;50.074;8.436;2023-04-01T15:11:13;11.50;99.90
4081;DHT22;2055;50.074;8.436;2023-04-01T15:17:05;11.60;99.90
4081;DHT22;2055;50.074;8.436;2023-04-01T15:22:50;11.50;99.90
4081;DHT22;2055;50.074;8.436;2023-04-01T15:39:54;11.60;99.90
4081;DHT22;2055;50.074;8.436;2023-04-01T15:42:49;11.90;99.90
4081;DHT22;2055;50.074;8.436;2023-04-01T15:54:48;12.90;99.90
4081;DHT22;2055;50.074;8.436;2023-04-01T16:03:30;12.10;99.90
4081;DHT22;2055;50.074;8.436;2023-04-01T16:06:17;11.80;99.90
4081;DHT22;2055;50.074;8.436;2023-04-01T16:09:02;11.70;99.90
4081;DHT22;2055;50.074;8.436;2023-04-01T16:22:49;11.40;99.90
4081;DHT22;2055;50.074;8.436;2023-04-01T16:25:33;11.30;99.90
4081;DHT22;2055;50.074;8.436;2023-04-01T16:34:03;11.20;99.90
4081;DHT22;2055;50.074;8.436;2023-04-01T16:36:42;11.20;99.90
4081;DHT22;2055;50.074;8.436;2023-04-01T16:47:19;11.00;99.90
4081;DHT22;2055;50.074;8.436;2023-04-01T16:50:00;11.00;99.90
4081;DHT22;2055;50.074;8.436;2023-04-01T16:55:15;11.00;99.90
4081;DHT22;2055;50.074;8.436;2023-04-01T16:57:51;11.00;99.90
4081;DHT22;2055;50.074;8.436;2023-04-01T17:00:26;10.90;99.90
4081;DHT22;2055;50.074;8.436;2023-04-01T17:06:03;10.90;99.90
4081;DHT22;2055;50.074;8.436;2023-04-01T17:11:44;10.80;99.90
4081;DHT22;2055;50.074;8.436;2023-04-01T17:14:25;10.80;99.90
4081;DHT22;2055;50.074;8.436;2023-04-01T17:17:05;10.80;99.90
4081;DHT22;2055;50.074;8.436;2023-04-01T17:19:55;10.80;99.90
4081;DHT22;2055;50.074;8.436;2023-04-01T17:28:18;10.70;99.90
4081;DHT22;2055;50.074;8.436;2023-04-01T17:36:36;10.60;99.90
4081;DHT22;2055;50.074;8.436;2023-04-01T17:44:49;10.50;99.90
4081;DHT22;2055;50.074;8.436;2023-04-01T17:47:43;10.50;99.90
4081;DHT22;2055;50.074;8.436;2023-04-01T17:50:42;10.50;99.90
4081;DHT22;2055;50.074;8.436;2023-04-01T17:58:39;10.40;99.90
4081;DHT22;2055;50.074;8.436;2023-04-01T18:01:31;10.40;99.90
4081;DHT22;2055;50.074;8.436;2023-04-01T18:04:26;10.40;99.90
4081;DHT22;2055;50.074;8.436;2023-04-01T18:07:56;10.40;99.90
4081;DHT22;2055;50.074;8.436;2023-04-01T18:10:23;10.30;99.90
4081;DHT22;2055;50.074;8.436;2023-04-01T18:16:10;10.20;99.90
4081;DHT22;2055;50.074;8.436;2023-04-01T18:18:46;10.10;99.90
4081;DHT22;2055;50.074;8.436;2023-04-01T18:21:32;10.00;99.90
4081;DHT22;2055;50.074;8.436;2023-04-01T18:29:48;9.80;99.90
4081;DHT22;2055;50.074;8.436;2023-04-01T18:35:27;9.80;99.90
4081;DHT22;2055;50.074;8.436;2023-04-01T18:38:30;9.80;99.90
4081;DHT22;2055;50.074;8.436;2023-04-01T18:41:13;9.80;99.90
4081;DHT22;2055;50.074;8.436;2023-04-01T18:43:52;9.80;99.90
4081;DHT22;2055;50.074;8.436;2023-04-01T18:48:57;9.70;99.90
4081;DHT22;2055;50.074;8.436;2023-04-01T18:54:33;9.70;99.90
4081;DHT22;2055;50.074;8.436;2023-04-01T18:57:16;9.60;99.90
4081;DHT22;2055;50.074;8.436;2023-04-01T19:02:33;9.70;99.90
4081;DHT22;2055;50.074;8.436;2023-04-01T19:05:34;9.60;99.90
4081;DHT22;2055;50.074;8.436;2023-04-01T19:08:37;9.60;99.90
4081;DHT22;2055;50.074;8.436;2023-04-01T19:14:03;9.60;99.90
4081;DHT22;2055;50.074;8.436;2023-04-01T19:19:09;9.60;99.90
4081;DHT22;2055;50.074;8.436;2023-04-01T19:21:44;9.50;99.90
4081;DHT22;2055;50.074;8.436;2023-04-01T19:29:27;9.40;99.90
4081;DHT22;2055;50.074;8.436;2023-04-01T19:32:10;9.40;99.90
4081;DHT22;2055;50.074;8.436;2023-04-01T19:35:04;9.30;99.90
4081;DHT22;2055;50.074;8.436;2023-04-01T19:37:39;9.30;99.90
4081;DHT22;2055;50.074;8.436;2023-04-01T19:40:15;9.20;99.90
4081;DHT22;2055;50.074;8.436;2023-04-01T19:45:33;9.10;99.90
4081;DHT22;2055;50.074;8.436;2023-04-01T19:48:30;9.00;99.90
4081;DHT22;2055;50.074;8.436;2023-04-01T19:51:09;9.00;99.90
4081;DHT22;2055;50.074;8.436;2023-04-01T19:54:12;9.00;99.90
4081;DHT22;2055;50.074;8.436;2023-04-01T19:57:14;8.90;99.90
4081;DHT22;2055;50.074;8.436;2023-04-01T19:59:50;8.90;99.90
4081;DHT22;2055;50.074;8.436;2023-04-01T20:02:26;8.90;99.90
4081;DHT22;2055;50.074;8.436;2023-04-01T20:04:55;8.90;99.90
4081;DHT22;2055;50.074;8.436;2023-04-01T20:07:34;8.90;99.90
4081;DHT22;2055;50.074;8.436;2023-04-01T20:10:11;8.80;99.90
4081;DHT22;2055;50.074;8.436;2023-04-01T20:13:12;8.80;99.90
4081;DHT22;2055;50.074;8.436;2023-04-01T20:15:45;8.80;99.90
4081;DHT22;2055;50.074;8.436;2023-04-01T20:18:22;8.80;99.90
4081;DHT22;2055;50.074;8.436;2023-04-01T20:24:01;8.90;99.90
4081;DHT22;2055;50.074;8.436;2023-04-01T20:26:42;8.90;99.90
4081;DHT22;2055;50.074;8.436;2023-04-01T20:34:22;9.00;99.90
4081;DHT22;2055;50.074;8.436;2023-04-01T20:42:47;9.00;99.90
4081;DHT22;2055;50.074;8.436;2023-04-01T20:50:56;9.10;99.90
4081;DHT22;2055;50.074;8.436;2023-04-01T20:53:35;9.10;99.90
4081;DHT22;2055;50.074;8.436;2023-04-01T20:59:15;9.10;99.90
4081;DHT22;2055;50.074;8.436;2023-04-01T21:01:54;9.00;99.90
4081;DHT22;2055;50.074;8.436;2023-04-01T21:07:25;9.00;99.90
4081;DHT22;2055;50.074;8.436;2023-04-01T21:10:20;9.00;99.90
4081;DHT22;2055;50.074;8.436;2023-04-01T21:12:59;8.90;99.90
4081;DHT22;2055;50.074;8.436;2023-04-01T21:15:38;9.00;99.90
4081;DHT22;2055;50.074;8.436;2023-04-01T21:18:21;9.00;99.90
4081;DHT22;2055;50.074;8.436;2023-04-01T21:37:16;9.00;99.90
4081;DHT22;2055;50.074;8.436;2023-04-01T21:43:23;9.10;99.90
4081;DHT22;2055;50.074;8.436;2023-04-01T22:00:18;9.20;99.90
4081;DHT22;2055;50.074;8.436;2023-04-01T22:05:39;9.20;99.90
4081;DHT22;2055;50.074;8.436;2023-04-01T22:08:37;9.20;99.90
4081;DHT22;2055;50.074;8.436;2023-04-01T22:21:51;9.20;99.90
4081;DHT22;2055;50.074;8.436;2023-04-01T22:27:35;9.20;99.90
4081;DHT22;2055;50.074;8.436;2023-04-01T22:30:15;9.20;99.90
4081;DHT22;2055;50.074;8.436;2023-04-01T22:32:46;9.20;99.90
4081;DHT22;2055;50.074;8.436;2023-04-01T22:38:14;9.20;99.90
4081;DHT22;2055;50.074;8.436;2023-04-01T22:43:44;9.20;99.90
4081;DHT22;2055;50.074;8.436;2023-04-01T22:48:58;9.20;99.90
4081;DHT22;2055;50.074;8.436;2023-04-01T22:51:45;9.20;99.90
4081;DHT22;2055;50.074;8.436;2023-04-01T22:56:50;9.20;99.90
4081;DHT22;2055;50.074;8.436;2023-04-01T22:59:28;9.20;99.90
4081;DHT22;2055;50.074;8.436;2023-04-01T23:02:16;9.20;99.90
4081;DHT22;2055;50.074;8.436;2023-04-01T23:04:47;9.20;99.90
4081;DHT22;2055;50.074;8.436;2023-04-01T23:07:56;9.20;99.90
4081;DHT22;2055;50.074;8.436;2023-04-01T23:10:29;9.20;99.90
4081;DHT22;2055;50.074;8.436;2023-04-01T23:13:01;9.20;99.90
4081;DHT22;2055;50.074;8.436;2023-04-01T23:15:28;9.10;99.90
4081;DHT22;2055;50.074;8.436;2023-04-01T23:18:05;9.20;99.90
4081;DHT22;2055;50.074;8.436;2023-04-01T23:26:42;9.20;99.90
4081;DHT22;2055;50.074;8.436;2023-04-01T23:29:14;9.20;99.90
4081;DHT22;2055;50.074;8.436;2023-04-01T23:31:45;9.20;99.90
4081;DHT22;2055;50.074;8.436;2023-04-01T23:36:51;9.20;99.90
4081;DHT22;2055;50.074;8.436;2023-04-01T23:39:25;9.20;99.90
4081;DHT22;2055;50.074;8.436;2023-04-01T23:41:54;9.20;99.90
4081;DHT22;2055;50.074;8.436;2023-04-01T23:44:20;9.20;99.90
4081;DHT22;2055;50.074;8.436;2023-04-01T23:46:47;9.20;99.90
4081;DHT22;2055;50.074;8.436;2023-04-01T23:49:25;9.20;99.90
4081;DHT22;2055;50.074;8.436;2023-04-01T23:52:02;9.20;99.90
4081;DHT22;2055;50.074;8.436;2023-04-01T23:54:34;9.20;99.90
4081;DHT22;2055;50.074;8.436;2023-04-01T23:57:11;9.20;99.90
4081;DHT22;2055;50.074;8.436;2023-04-01T23:59:37;9.20;99.90
